Planet Ace — 3EYF9 — position and weather

sailwx.info

Track history (hours):
 
Tides and Currents Weather Stations Pressure Air Temp Water Temp Dewpoint Dewpoint Depression Visibility Wind Speed Wind Dir Waves Ship Positions

Planet Ace

Last reported at 2016-Feb-13 01:33 UTC. Time now 2016-Feb-13 10:46 UTC.
Position N 36°45' E 013°11'.

Length 188 m; beam 28.2 m.

Type: Cargo ship. MMSI: 352168000.

Date/timePositionNaut miles runAvg speedWind from/ knotsBaromVisibWave heightAir tempDewpointWater temp
2016-Feb-13 01:33N 36°45' E 013°11'1615.8
2016-Feb-13 00:34N 36°39' E 013°29'1515.4
2016-Feb-12 23:34N 36°34' E 013°47'1514.9
2016-Feb-12 22:33N 36°30' E 014°05'1515.3
2016-Feb-12 21:34N 36°25' E 014°23'1515.1
2016-Feb-12 20:33N 36°20' E 014°41'50413.3
2016-Feb-11 06:33N 38°27' E 024°55'  
2016-Feb-08 03:17N 37°45' E 024°16'1214.7
2016-Feb-08 02:30N 37°36' E 024°07'1515.5
2016-Feb-08 01:33N 37°35' E 023°49'1514.9
2016-Feb-08 00:33N 37°47' E 023°38'1010.3
2016-Feb-07 23:33N 37°58' E 023°36'0 0.0
2016-Feb-07 22:31N 37°58' E 023°36'0 0.0
2016-Feb-07 21:31N 37°58' E 023°36'0 0.0
2016-Feb-07 20:28N 37°58' E 023°36'0 0.0
2016-Feb-07 19:31N 37°58' E 023°36'0 0.0
2016-Feb-07 18:25N 37°58' E 023°36'2 2.2
2016-Feb-07 17:33N 37°56' E 023°36'1010.4
2016-Feb-07 16:34N 37°46' E 023°42'1212.3
2016-Feb-07 15:33N 37°34' E 023°45'36911.9
2016-Feb-06 08:32N 37°44' E 015°59'2813.6
2016-Feb-06 06:30N 38°03' E 015°33'1512.9
2016-Feb-06 05:19N 38°17' E 015°40'6 8.4
2016-Feb-06 04:33N 38°22' E 015°36'1010.0
2016-Feb-06 03:33N 38°29' E 015°26'1211.3
2016-Feb-06 02:30N 38°38' E 015°16'37114.2
2016-Feb-05 00:25N 43°34' E 010°18'1 1.3
2016-Feb-04 23:29N 43°35' E 010°18'0 0.0
2016-Feb-04 22:32N 43°35' E 010°18'0 0.0
2016-Feb-04 21:32N 43°35' E 010°18'0 0.0
2016-Feb-04 20:32N 43°35' E 010°18'0 0.0
2016-Feb-04 19:32N 43°35' E 010°18'0 0.0
2016-Feb-04 18:32N 43°35' E 010°18'0 0.0
2016-Feb-04 17:32N 43°35' E 010°18'0 0.0
2016-Feb-04 16:32N 43°35' E 010°18'0 0.0
2016-Feb-04 15:32N 43°35' E 010°18'0 0.0
2016-Feb-04 14:32N 43°35' E 010°18'0 0.0
2016-Feb-04 13:32N 43°35' E 010°18'0 0.0
2016-Feb-04 12:31N 43°35' E 010°18'0 0.0
2016-Feb-04 11:31N 43°35' E 010°18'0 0.0
2016-Feb-04 10:31N 43°35' E 010°18'0 0.0
2016-Feb-04 09:31N 43°35' E 010°18'0 0.0
2016-Feb-04 08:31N 43°35' E 010°18'0 0.0
2016-Feb-04 07:28N 43°35' E 010°18'0 0.0
2016-Feb-04 06:31N 43°35' E 010°18'0 0.0
2016-Feb-04 05:31N 43°35' E 010°18'0 0.0
2016-Feb-04 04:31N 43°35' E 010°18'0 0.0
2016-Feb-04 03:31N 43°35' E 010°18'4 4.2
2016-Feb-04 02:33N 43°31' E 010°15'6 6.5
2016-Feb-04 01:33N 43°26' E 010°10'2 2.5
2016-Feb-04 00:34N 43°28' E 010°11'7 7.4
2016-Feb-03 23:33N 43°21' E 010°10'3 3.4
2016-Feb-03 22:33N 43°18' E 010°11'1 1.0
2016-Feb-03 21:33N 43°18' E 010°10'2 1.8
2016-Feb-03 20:33N 43°19' E 010°08'2 2.3
2016-Feb-03 19:34N 43°21' E 010°11'4 4.1
2016-Feb-03 18:33N 43°24' E 010°13'6 6.0
2016-Feb-03 17:34N 43°30' E 010°16'2 2.1
2016-Feb-03 16:33N 43°31' E 010°14'2 2.0
2016-Feb-03 15:33N 43°29' E 010°13'1313.0
2016-Feb-03 14:33N 43°20' E 010°01'1615.5
2016-Feb-03 13:33N 43°14' E 009°41'1615.9
2016-Feb-03 12:33N 43°10' E 009°20'  
Track history (hours):
 
Tides and Currents Weather Stations Pressure Air Temp Water Temp Dewpoint Dewpoint Depression Visibility Wind Speed Wind Dir Waves Ship Positions

Planet Ace

Last reported at 2016-Feb-13 01:33 UTC. Time now 2016-Feb-13 10:46 UTC.
Position N 36°45' E 013°11'.

Length 188 m; beam 28.2 m.

Type: Cargo ship. MMSI: 352168000.

Date/timePositionNaut miles runAvg speedWind from/ knotsBaromVisibWave heightAir tempDewpointWater temp
2016-Feb-13 01:33N 36°45' E 013°11'1615.8
2016-Feb-13 00:34N 36°39' E 013°29'1515.4
2016-Feb-12 23:34N 36°34' E 013°47'1514.9
2016-Feb-12 22:33N 36°30' E 014°05'1515.3
2016-Feb-12 21:34N 36°25' E 014°23'1515.1
2016-Feb-12 20:33N 36°20' E 014°41'50413.3
2016-Feb-11 06:33N 38°27' E 024°55'  
2016-Feb-08 03:17N 37°45' E 024°16'1214.7
2016-Feb-08 02:30N 37°36' E 024°07'1515.5
2016-Feb-08 01:33N 37°35' E 023°49'1514.9
2016-Feb-08 00:33N 37°47' E 023°38'1010.3
2016-Feb-07 23:33N 37°58' E 023°36'0 0.0
2016-Feb-07 22:31N 37°58' E 023°36'0 0.0
2016-Feb-07 21:31N 37°58' E 023°36'0 0.0
2016-Feb-07 20:28N 37°58' E 023°36'0 0.0
2016-Feb-07 19:31N 37°58' E 023°36'0 0.0
2016-Feb-07 18:25N 37°58' E 023°36'2 2.2
2016-Feb-07 17:33N 37°56' E 023°36'1010.4
2016-Feb-07 16:34N 37°46' E 023°42'1212.3
2016-Feb-07 15:33N 37°34' E 023°45'36911.9
2016-Feb-06 08:32N 37°44' E 015°59'2813.6
2016-Feb-06 06:30N 38°03' E 015°33'1512.9
2016-Feb-06 05:19N 38°17' E 015°40'6 8.4
2016-Feb-06 04:33N 38°22' E 015°36'1010.0
2016-Feb-06 03:33N 38°29' E 015°26'1211.3
2016-Feb-06 02:30N 38°38' E 015°16'37114.2
2016-Feb-05 00:25N 43°34' E 010°18'1 1.3
2016-Feb-04 23:29N 43°35' E 010°18'0 0.0
2016-Feb-04 22:32N 43°35' E 010°18'0 0.0
2016-Feb-04 21:32N 43°35' E 010°18'0 0.0
2016-Feb-04 20:32N 43°35' E 010°18'0 0.0
2016-Feb-04 19:32N 43°35' E 010°18'0 0.0
2016-Feb-04 18:32N 43°35' E 010°18'0 0.0
2016-Feb-04 17:32N 43°35' E 010°18'0 0.0
2016-Feb-04 16:32N 43°35' E 010°18'0 0.0
2016-Feb-04 15:32N 43°35' E 010°18'0 0.0
2016-Feb-04 14:32N 43°35' E 010°18'0 0.0
2016-Feb-04 13:32N 43°35' E 010°18'0 0.0
2016-Feb-04 12:31N 43°35' E 010°18'0 0.0
2016-Feb-04 11:31N 43°35' E 010°18'0 0.0
2016-Feb-04 10:31N 43°35' E 010°18'0 0.0
2016-Feb-04 09:31N 43°35' E 010°18'0 0.0
2016-Feb-04 08:31N 43°35' E 010°18'0 0.0
2016-Feb-04 07:28N 43°35' E 010°18'0 0.0
2016-Feb-04 06:31N 43°35' E 010°18'0 0.0
2016-Feb-04 05:31N 43°35' E 010°18'0 0.0
2016-Feb-04 04:31N 43°35' E 010°18'0 0.0
2016-Feb-04 03:31N 43°35' E 010°18'4 4.2
2016-Feb-04 02:33N 43°31' E 010°15'6 6.5
2016-Feb-04 01:33N 43°26' E 010°10'2 2.5
2016-Feb-04 00:34N 43°28' E 010°11'7 7.4
2016-Feb-03 23:33N 43°21' E 010°10'3 3.4
2016-Feb-03 22:33N 43°18' E 010°11'1 1.0
2016-Feb-03 21:33N 43°18' E 010°10'2 1.8
2016-Feb-03 20:33N 43°19' E 010°08'2 2.3
2016-Feb-03 19:34N 43°21' E 010°11'4 4.1
2016-Feb-03 18:33N 43°24' E 010°13'6 6.0
2016-Feb-03 17:34N 43°30' E 010°16'2 2.1
2016-Feb-03 16:33N 43°31' E 010°14'2 2.0
2016-Feb-03 15:33N 43°29' E 010°13'1313.0
2016-Feb-03 14:33N 43°20' E 010°01'1615.5
2016-Feb-03 13:33N 43°14' E 009°41'1615.9
2016-Feb-03 12:33N 43°10' E 009°20'  

Dump ship's entire track history